Time;durP1;ratioP1;P1;durP2;ratioP2;P2;SDS_P1;SDS_P2;PMS_P1;PMS_P2;Temp;Humidity;BMP_temperature;BMP_pressure;BME280_temperature;BME280_humidity;BME280_pressure;Samples;Min_cycle;Max_cycle;Signal;HPM_P1;HPM_P2
2023/03/21 00:00:15;;;;;;;30.17;21.00;;;;;;;;;;5113610;28;20191;-74
2023/03/21 00:02:41;;;;;;;29.08;22.30;;;;;;;;;;5108393;28;20044;-75
2023/03/21 00:05:07;;;;;;;32.45;23.95;;;;;;;;;;5109179;28;20037;-74
2023/03/21 00:07:41;;;;;;;30.17;23.02;;;;;;;;;;5119999;27;20084;-75
2023/03/21 00:10:08;;;;;;;30.08;23.52;;;;;;;;;;5107334;28;20052;-75
2023/03/21 00:12:45;;;;;;;20.92;17.55;;;;;;;;;;5114505;27;20075;-75
2023/03/21 00:15:11;;;;;;;26.80;22.35;;;;;;;;;;5114716;28;20130;-74
2023/03/21 00:17:38;;;;;;;30.85;22.98;;;;;;;;;;5106168;27;20298;-75
2023/03/21 00:20:07;;;;;;;30.77;23.60;;;;;;;;;;5110510;28;20048;-74
2023/03/21 00:22:34;;;;;;;30.17;23.92;;;;;;;;;;5115740;27;20044;-74
2023/03/21 00:25:00;;;;;;;29.40;23.30;;;;;;;;;;5119782;27;20040;-75
2023/03/21 00:27:27;;;;;;;32.30;25.95;;;;;;;;;;5116654;27;20512;-75
2023/03/21 00:30:14;;;;;;;27.02;22.02;;;;;;;;;;5110233;27;20064;-75
2023/03/21 00:32:40;;;;;;;35.08;22.77;;;;;;;;;;5104475;27;20047;-76
2023/03/21 00:35:21;;;;;;;33.33;23.17;;;;;;;;;;5119116;28;20516;-75
2023/03/21 00:38:08;;;;;;;31.63;22.38;;;;;;;;;;5115532;28;20171;-75
2023/03/21 00:40:34;;;;;;;27.92;21.50;;;;;;;;;;5115533;27;20124;-75
2023/03/21 00:43:16;;;;;;;31.02;23.70;;;;;;;;;;5108138;27;20076;-75
2023/03/21 00:45:43;;;;;;;33.50;23.23;;;;;;;;;;5115256;27;20076;-75
2023/03/21 00:48:09;;;;;;;35.55;24.08;;;;;;;;;;5101905;28;20048;-74
2023/03/21 00:50:38;;;;;;;36.13;24.52;;;;;;;;;;5118747;28;20048;-74
2023/03/21 00:53:05;;;;;;;25.17;21.42;;;;;;;;;;5109959;27;20056;-74
2023/03/21 00:55:31;;;;;;;33.35;22.95;;;;;;;;;;5102762;28;20489;-74
2023/03/21 00:57:57;;;;;;;36.33;24.35;;;;;;;;;;5117616;28;20060;-74
2023/03/21 01:00:27;;;;;;;30.23;20.98;;;;;;;;;;5115988;27;20515;-74
2023/03/21 01:02:57;;;;;;;26.88;21.40;;;;;;;;;;5108801;28;20172;-75
2023/03/21 01:08:17;;;;;;;32.30;22.48;;;;;;;;;;5118085;28;20048;-74
2023/03/21 01:10:54;;;;;;;34.10;23.55;;;;;;;;;;5114427;27;20083;-74
2023/03/21 01:13:21;;;;;;;35.70;23.40;;;;;;;;;;5102319;28;20124;-74
2023/03/21 01:15:49;;;;;;;33.35;23.98;;;;;;;;;;5105894;28;20126;-74
2023/03/21 01:18:17;;;;;;;34.10;24.50;;;;;;;;;;5103981;28;20052;-74
2023/03/21 01:20:44;;;;;;;34.67;23.50;;;;;;;;;;5108966;28;20181;-74
2023/03/21 01:23:11;;;;;;;33.75;25.58;;;;;;;;;;5116881;28;20094;-74
2023/03/21 01:25:38;;;;;;;34.17;24.98;;;;;;;;;;5101068;28;20053;-75
2023/03/21 01:28:04;;;;;;;33.20;24.17;;;;;;;;;;5116725;28;20647;-75
2023/03/21 01:30:31;;;;;;;35.33;25.92;;;;;;;;;;5103548;27;20114;-75
2023/03/21 01:33:06;;;;;;;41.55;27.40;;;;;;;;;;5104181;28;20440;-74
2023/03/21 01:35:35;;;;;;;34.88;25.77;;;;;;;;;;5111540;28;20142;-75
2023/03/21 01:38:15;;;;;;;40.13;30.20;;;;;;;;;;5108602;28;20072;-74
2023/03/21 01:40:43;;;;;;;40.50;27.05;;;;;;;;;;5107914;28;20049;-75
2023/03/21 01:43:32;;;;;;;41.83;27.55;;;;;;;;;;5104470;28;20049;-74
2023/03/21 01:46:20;;;;;;;42.90;29.38;;;;;;;;;;5102848;28;20052;-74
2023/03/21 01:49:12;;;;;;;42.80;27.92;;;;;;;;;;5110170;28;20079;-75
2023/03/21 01:51:42;;;;;;;40.08;30.42;;;;;;;;;;5103204;28;20040;-74
2023/03/21 01:54:31;;;;;;;50.60;32.75;;;;;;;;;;5108865;28;20125;-74
2023/03/21 01:57:00;;;;;;;41.35;30.52;;;;;;;;;;5118997;27;20048;-74
2023/03/21 01:59:33;;;;;;;47.90;31.88;;;;;;;;;;5107905;28;20062;-74
2023/03/21 02:02:16;;;;;;;53.13;33.63;;;;;;;;;;5112763;28;20087;-74
2023/03/21 02:04:57;;;;;;;49.72;32.97;;;;;;;;;;5104151;28;20607;-74
2023/03/21 02:07:28;;;;;;;49.50;32.78;;;;;;;;;;5112274;28;20055;-74
2023/03/21 02:10:03;;;;;;;46.00;33.65;;;;;;;;;;5117988;28;20058;-75
2023/03/21 02:12:30;;;;;;;50.53;32.53;;;;;;;;;;5118789;28;20503;-74
2023/03/21 02:14:57;;;;;;;54.05;36.72;;;;;;;;;;5114292;28;20048;-74
2023/03/21 02:17:55;;;;;;;52.60;34.40;;;;;;;;;;5114188;28;20044;-74
2023/03/21 02:20:53;;;;;;;54.28;35.03;;;;;;;;;;5111811;28;20044;-74
2023/03/21 02:23:25;;;;;;;51.67;34.10;;;;;;;;;;5119842;28;20080;-74
2023/03/21 02:25:52;;;;;;;58.25;37.47;;;;;;;;;;5105967;28;20052;-74
2023/03/21 02:28:23;;;;;;;49.10;34.17;;;;;;;;;;5112724;28;20079;-75
2023/03/21 02:31:00;;;;;;;52.08;36.30;;;;;;;;;;5111516;28;20409;-75
2023/03/21 02:33:45;;;;;;;53.95;34.83;;;;;;;;;;5108979;28;20047;-74
2023/03/21 02:36:31;;;;;;;48.40;33.08;;;;;;;;;;5114394;28;20036;-74
2023/03/21 02:39:11;;;;;;;57.97;34.92;;;;;;;;;;5109361;28;20482;-74
2023/03/21 02:41:37;;;;;;;53.17;33.95;;;;;;;;;;5108686;28;20505;-74
2023/03/21 02:44:09;;;;;;;66.32;36.72;;;;;;;;;;5108979;28;20055;-75
2023/03/21 02:46:54;;;;;;;57.67;37.63;;;;;;;;;;5117741;28;20048;-74
2023/03/21 02:49:46;;;;;;;66.22;37.30;;;;;;;;;;5135528;27;20511;-74
2023/03/21 02:52:16;;;;;;;72.63;37.88;;;;;;;;;;5117599;27;20051;-74
2023/03/21 02:55:03;;;;;;;68.53;38.08;;;;;;;;;;5106416;28;20534;-74
2023/03/21 02:57:37;;;;;;;65.97;37.10;;;;;;;;;;5119158;28;20050;-74
2023/03/21 03:00:12;;;;;;;59.67;35.70;;;;;;;;;;5109892;28;20060;-74
2023/03/21 03:02:42;;;;;;;68.30;37.60;;;;;;;;;;5119639;28;20052;-74
2023/03/21 03:05:16;;;;;;;68.32;36.72;;;;;;;;;;5109721;28;20332;-74
2023/03/21 03:08:07;;;;;;;58.92;35.40;;;;;;;;;;5121210;27;20040;-74
2023/03/21 03:10:43;;;;;;;73.50;38.50;;;;;;;;;;5118674;28;20135;-74
2023/03/21 03:13:28;;;;;;;62.95;36.83;;;;;;;;;;5104539;28;20119;-75
2023/03/21 03:15:58;;;;;;;61.08;35.70;;;;;;;;;;5120702;28;20067;-75
2023/03/21 03:18:38;;;;;;;64.25;35.25;;;;;;;;;;5111352;28;20048;-74
2023/03/21 03:21:08;;;;;;;51.47;32.90;;;;;;;;;;5111765;28;20052;-74
2023/03/21 03:24:00;;;;;;;54.92;31.65;;;;;;;;;;5107464;28;20060;-74
2023/03/21 03:26:40;;;;;;;47.50;30.25;;;;;;;;;;5099724;28;20044;-74
2023/03/21 03:29:07;;;;;;;46.40;29.25;;;;;;;;;;5120207;27;20056;-73
2023/03/21 03:31:43;;;;;;;46.88;28.75;;;;;;;;;;5108183;27;20133;-74
2023/03/21 03:34:12;;;;;;;51.30;27.23;;;;;;;;;;5116992;28;20048;-74
2023/03/21 03:36:46;;;;;;;43.97;28.02;;;;;;;;;;5113002;28;20056;-74
2023/03/21 03:39:15;;;;;;;54.08;28.70;;;;;;;;;;5104342;28;20051;-74
2023/03/21 03:41:52;;;;;;;52.63;28.60;;;;;;;;;;5110248;28;20048;-73
2023/03/21 03:44:40;;;;;;;49.35;28.50;;;;;;;;;;5136910;27;20096;-74
2023/03/21 03:47:15;;;;;;;45.90;26.88;;;;;;;;;;5116412;28;20147;-74
2023/03/21 03:50:02;;;;;;;46.33;27.33;;;;;;;;;;5112604;27;20052;-74
2023/03/21 03:52:32;;;;;;;39.78;27.98;;;;;;;;;;5116674;28;20094;-74
2023/03/21 03:55:06;;;;;;;45.90;26.50;;;;;;;;;;5107126;28;20048;-75
2023/03/21 03:57:36;;;;;;;37.90;24.77;;;;;;;;;;5111803;28;20489;-74
2023/03/21 04:00:10;;;;;;;58.60;27.83;;;;;;;;;;5117287;28;20059;-73
2023/03/21 04:02:43;;;;;;;45.53;28.00;;;;;;;;;;5108793;28;20051;-73
2023/03/21 04:05:14;;;;;;;45.33;27.77;;;;;;;;;;5110014;28;20694;-74
2023/03/21 04:07:40;;;;;;;39.75;25.77;;;;;;;;;;5116822;27;20044;-73
2023/03/21 04:10:07;;;;;;;42.88;26.13;;;;;;;;;;5108351;27;20958;-73
2023/03/21 04:12:39;;;;;;;42.13;26.92;;;;;;;;;;5111185;27;20044;-73
2023/03/21 04:15:23;;;;;;;45.15;27.58;;;;;;;;;;5108360;28;20131;-73
2023/03/21 04:17:56;;;;;;;40.00;27.83;;;;;;;;;;5119489;28;20059;-74
2023/03/21 04:20:23;;;;;;;43.30;27.60;;;;;;;;;;5105879;27;20134;-74
2023/03/21 04:23:03;;;;;;;48.60;28.40;;;;;;;;;;5114806;28;20501;-74
2023/03/21 04:25:31;;;;;;;49.50;29.02;;;;;;;;;;5114117;28;20569;-73
2023/03/21 04:28:02;;;;;;;54.17;29.63;;;;;;;;;;5113851;28;20064;-74
2023/03/21 04:30:50;;;;;;;48.08;30.08;;;;;;;;;;5105766;28;20064;-74
2023/03/21 04:33:37;;;;;;;51.60;29.73;;;;;;;;;;5111975;28;20049;-73
2023/03/21 04:36:08;;;;;;;43.22;28.85;;;;;;;;;;5108897;28;20454;-74
2023/03/21 04:38:35;;;;;;;46.07;30.80;;;;;;;;;;5101803;28;20052;-73
2023/03/21 04:41:03;;;;;;;60.75;31.33;;;;;;;;;;5118879;28;20267;-74
2023/03/21 04:43:29;;;;;;;53.60;32.50;;;;;;;;;;5114461;28;20044;-74
2023/03/21 04:45:56;;;;;;;56.67;33.97;;;;;;;;;;5115520;28;20056;-73
2023/03/21 04:48:23;;;;;;;53.95;33.35;;;;;;;;;;5110526;28;20889;-73
2023/03/21 04:50:50;;;;;;;53.03;33.67;;;;;;;;;;5103774;28;20039;-74
2023/03/21 04:53:16;;;;;;;57.58;33.63;;;;;;;;;;5118419;28;20048;-73
2023/03/21 04:55:44;;;;;;;63.20;35.53;;;;;;;;;;5118746;27;20044;-73
2023/03/21 04:58:10;;;;;;;54.72;32.80;;;;;;;;;;5111856;28;20110;-74
2023/03/21 05:00:37;;;;;;;56.95;33.13;;;;;;;;;;5112050;28;20056;-72
2023/03/21 05:03:07;;;;;;;58.58;33.20;;;;;;;;;;5110175;28;20044;-74
2023/03/21 05:05:37;;;;;;;59.58;35.20;;;;;;;;;;5104562;27;20527;-74
2023/03/21 05:08:05;;;;;;;51.67;31.00;;;;;;;;;;5115536;28;20051;-73
2023/03/21 05:10:31;;;;;;;52.15;32.38;;;;;;;;;;5113950;28;20124;-73
2023/03/21 05:12:58;;;;;;;50.05;30.95;;;;;;;;;;5112909;28;20052;-74
2023/03/21 05:15:26;;;;;;;47.05;30.33;;;;;;;;;;5108691;28;20056;-74
2023/03/21 05:17:52;;;;;;;51.05;30.77;;;;;;;;;;5106668;28;20560;-74
2023/03/21 05:20:19;;;;;;;46.47;29.33;;;;;;;;;;5114373;28;20045;-74
2023/03/21 05:22:48;;;;;;;49.78;27.65;;;;;;;;;;5102444;28;20504;-74
2023/03/21 05:25:16;;;;;;;39.30;23.00;;;;;;;;;;5110335;27;20150;-74
2023/03/21 05:28:04;;;;;;;39.67;25.08;;;;;;;;;;5099592;28;20056;-74
2023/03/21 05:30:32;;;;;;;41.38;26.50;;;;;;;;;;5099945;28;20044;-75
2023/03/21 05:33:00;;;;;;;60.85;26.75;;;;;;;;;;5098480;28;20119;-74
2023/03/21 05:35:27;;;;;;;50.22;26.40;;;;;;;;;;5100228;28;20511;-74
2023/03/21 05:37:57;;;;;;;50.00;25.58;;;;;;;;;;5104953;28;20052;-73
2023/03/21 05:40:26;;;;;;;45.33;24.50;;;;;;;;;;5099427;28;20048;-74
2023/03/21 05:42:55;;;;;;;42.95;24.13;;;;;;;;;;5113572;28;20896;-74
2023/03/21 05:45:23;;;;;;;36.83;23.25;;;;;;;;;;5098707;28;20053;-74
2023/03/21 05:47:50;;;;;;;47.03;23.80;;;;;;;;;;5110075;28;20053;-74
2023/03/21 05:50:19;;;;;;;41.72;23.73;;;;;;;;;;5110760;28;20044;-73
2023/03/21 05:52:58;;;;;;;47.33;23.05;;;;;;;;;;5099593;28;20061;-74
2023/03/21 05:55:25;;;;;;;43.03;22.92;;;;;;;;;;5106864;28;20055;-74
2023/03/21 05:57:52;;;;;;;44.72;22.23;;;;;;;;;;5102450;28;20048;-74
2023/03/21 06:00:24;;;;;;;44.20;22.50;;;;;;;;;;5100951;28;20125;-75
2023/03/21 06:03:08;;;;;;;41.58;22.10;;;;;;;;;;5108473;28;21110;-74
2023/03/21 06:05:51;;;;;;;36.65;21.75;;;;;;;;;;5108908;28;20105;-74
2023/03/21 06:08:22;;;;;;;47.28;22.42;;;;;;;;;;5106131;28;20102;-73
2023/03/21 06:10:49;;;;;;;35.45;21.38;;;;;;;;;;5111295;28;20634;-74
2023/03/21 06:13:16;;;;;;;43.03;23.48;;;;;;;;;;5100786;28;20092;-74
2023/03/21 06:15:43;;;;;;;44.08;21.77;;;;;;;;;;5112945;28;20083;-75
2023/03/21 06:18:14;;;;;;;36.85;21.23;;;;;;;;;;5106096;28;20143;-72
2023/03/21 06:20:51;;;;;;;30.05;19.45;;;;;;;;;;5111739;28;20140;-74
2023/03/21 06:23:17;;;;;;;32.80;19.92;;;;;;;;;;5117317;28;20044;-75
2023/03/21 06:25:44;;;;;;;35.28;21.17;;;;;;;;;;5115444;28;20056;-74
2023/03/21 06:28:11;;;;;;;37.22;20.88;;;;;;;;;;5112337;28;20101;-73
2023/03/21 06:30:39;;;;;;;32.40;18.92;;;;;;;;;;5106624;28;20048;-75
2023/03/21 06:33:16;;;;;;;36.58;20.20;;;;;;;;;;5135354;27;20048;-74
2023/03/21 06:35:43;;;;;;;44.75;20.80;;;;;;;;;;5110427;28;20048;-74
2023/03/21 06:38:10;;;;;;;38.63;19.98;;;;;;;;;;5113582;27;20414;-74
2023/03/21 06:40:37;;;;;;;37.53;20.40;;;;;;;;;;5102895;28;20455;-74
2023/03/21 06:43:04;;;;;;;31.88;18.52;;;;;;;;;;5106266;28;20135;-74
2023/03/21 06:45:30;;;;;;;35.00;19.52;;;;;;;;;;5106643;27;20179;-75
2023/03/21 06:47:57;;;;;;;31.27;18.27;;;;;;;;;;5109163;27;20530;-74
2023/03/21 06:50:32;;;;;;;29.92;17.77;;;;;;;;;;5117517;28;20056;-74
2023/03/21 06:52:59;;;;;;;32.65;18.70;;;;;;;;;;5119396;28;20858;-75
2023/03/21 06:55:29;;;;;;;39.85;18.30;;;;;;;;;;5117749;27;20098;-73
2023/03/21 06:57:58;;;;;;;28.27;18.13;;;;;;;;;;5120531;28;20609;-74
2023/03/21 07:00:26;;;;;;;35.55;18.55;;;;;;;;;;5111826;28;20073;-74
2023/03/21 07:02:52;;;;;;;31.65;16.83;;;;;;;;;;5132626;27;20055;-74
2023/03/21 07:05:22;;;;;;;30.48;17.20;;;;;;;;;;5106086;28;20056;-73
2023/03/21 07:07:48;;;;;;;39.13;18.38;;;;;;;;;;5117928;27;20036;-74
2023/03/21 07:10:16;;;;;;;36.88;17.17;;;;;;;;;;5112528;28;20102;-73
2023/03/21 07:12:50;;;;;;;29.88;17.25;;;;;;;;;;5117238;28;20055;-73
2023/03/21 07:15:27;;;;;;;27.77;16.77;;;;;;;;;;5111775;28;20049;-73
2023/03/21 07:17:54;;;;;;;32.33;17.27;;;;;;;;;;5113363;28;20519;-74
2023/03/21 07:20:21;;;;;;;29.63;16.10;;;;;;;;;;5113727;28;20536;-73
2023/03/21 07:22:47;;;;;;;31.02;16.08;;;;;;;;;;5107062;27;20131;-74
2023/03/21 07:25:16;;;;;;;29.02;16.08;;;;;;;;;;5117381;27;20059;-74
2023/03/21 07:27:42;;;;;;;23.85;15.98;;;;;;;;;;5110404;28;20052;-74
2023/03/21 07:30:09;;;;;;;27.73;14.32;;;;;;;;;;5116946;28;20511;-73
2023/03/21 07:32:39;;;;;;;27.20;15.23;;;;;;;;;;5106114;27;20087;-73
2023/03/21 07:35:06;;;;;;;23.42;14.80;;;;;;;;;;5116281;28;20083;-73
2023/03/21 07:37:33;;;;;;;23.10;15.27;;;;;;;;;;5105943;28;20048;-74
2023/03/21 07:40:06;;;;;;;28.00;15.30;;;;;;;;;;5135730;27;20504;-73
2023/03/21 07:42:33;;;;;;;24.92;14.95;;;;;;;;;;5111098;28;20071;-73
2023/03/21 07:44:59;;;;;;;26.17;13.93;;;;;;;;;;5105236;28;20049;-73
2023/03/21 07:47:31;;;;;;;26.10;13.50;;;;;;;;;;5109771;28;20123;-74
2023/03/21 07:49:57;;;;;;;31.83;14.38;;;;;;;;;;5114131;27;20508;-74
2023/03/21 07:52:24;;;;;;;29.13;13.88;;;;;;;;;;5107758;28;20128;-73
2023/03/21 07:54:50;;;;;;;18.92;13.07;;;;;;;;;;5113908;28;20063;-74
2023/03/21 07:57:17;;;;;;;30.27;13.70;;;;;;;;;;5110565;27;20131;-74
2023/03/21 07:59:44;;;;;;;27.55;13.68;;;;;;;;;;5109815;28;20088;-74
2023/03/21 08:02:15;;;;;;;23.38;14.02;;;;;;;;;;5107186;28;20131;-74
2023/03/21 08:04:41;;;;;;;28.50;13.05;;;;;;;;;;5109114;28;20054;-74
2023/03/21 08:07:08;;;;;;;23.25;12.05;;;;;;;;;;5111324;27;20059;-74
2023/03/21 08:09:35;;;;;;;33.20;12.40;;;;;;;;;;5103644;28;20052;-74
2023/03/21 08:12:03;;;;;;;26.80;12.82;;;;;;;;;;5119433;28;20059;-74
2023/03/21 08:14:29;;;;;;;25.42;12.38;;;;;;;;;;5102788;27;20041;-75
2023/03/21 08:16:55;;;;;;;22.40;12.73;;;;;;;;;;5105117;28;20070;-74
2023/03/21 08:19:22;;;;;;;24.75;12.95;;;;;;;;;;5117085;27;20135;-74
2023/03/21 08:21:49;;;;;;;27.80;12.57;;;;;;;;;;5118835;27;20044;-74
2023/03/21 08:24:15;;;;;;;22.67;13.02;;;;;;;;;;5122076;27;20044;-73
2023/03/21 08:26:43;;;;;;;25.52;12.45;;;;;;;;;;5120299;27;20052;-74
2023/03/21 08:29:09;;;;;;;32.67;15.15;;;;;;;;;;5119124;27;20080;-73
2023/03/21 08:31:36;;;;;;;22.27;12.07;;;;;;;;;;5121862;28;20109;-74
2023/03/21 08:34:02;;;;;;;30.88;13.07;;;;;;;;;;5121224;27;20146;-74
2023/03/21 08:36:30;;;;;;;20.85;11.30;;;;;;;;;;5121096;28;20584;-74
2023/03/21 08:39:04;;;;;;;23.65;10.93;;;;;;;;;;5121667;27;20055;-75
2023/03/21 08:41:34;;;;;;;18.63;11.20;;;;;;;;;;5117365;28;20118;-74
2023/03/21 08:44:00;;;;;;;27.75;11.82;;;;;;;;;;5111287;28;20074;-74
2023/03/21 08:46:27;;;;;;;13.68;9.57;;;;;;;;;;5107564;27;20052;-74
2023/03/21 08:48:54;;;;;;;21.15;11.82;;;;;;;;;;5106037;28;20123;-74
2023/03/21 08:51:20;;;;;;;16.58;8.35;;;;;;;;;;5108277;28;20808;-73
2023/03/21 08:53:49;;;;;;;17.73;10.38;;;;;;;;;;5112403;28;20098;-74
2023/03/21 08:56:16;;;;;;;24.25;11.38;;;;;;;;;;5113771;28;20852;-74
2023/03/21 08:58:43;;;;;;;19.92;9.20;;;;;;;;;;5108975;28;20052;-74
2023/03/21 09:01:14;;;;;;;17.55;10.02;;;;;;;;;;5114134;27;20131;-74
2023/03/21 09:03:41;;;;;;;26.65;9.55;;;;;;;;;;5104673;28;20080;-75
2023/03/21 09:06:10;;;;;;;17.27;9.10;;;;;;;;;;5106134;28;20546;-74
2023/03/21 09:08:37;;;;;;;23.58;9.95;;;;;;;;;;5117147;28;20048;-74
2023/03/21 09:11:03;;;;;;;18.30;8.75;;;;;;;;;;5114442;27;20037;-74
2023/03/21 09:13:30;;;;;;;12.93;8.07;;;;;;;;;;5111157;28;20551;-74
2023/03/21 09:16:00;;;;;;;16.60;9.10;;;;;;;;;;5114958;28;20086;-74
2023/03/21 09:18:37;;;;;;;14.93;8.55;;;;;;;;;;5120713;27;20044;-74
2023/03/21 09:21:11;;;;;;;13.27;8.77;;;;;;;;;;5121145;27;20048;-74
2023/03/21 09:23:38;;;;;;;13.65;7.97;;;;;;;;;;5120622;27;20040;-79
2023/03/21 09:26:06;;;;;;;15.43;8.07;;;;;;;;;;5119076;27;20051;-81
2023/03/21 09:28:33;;;;;;;18.52;8.50;;;;;;;;;;5121171;27;20131;-80
2023/03/21 09:31:01;;;;;;;18.13;8.77;;;;;;;;;;5117644;27;20480;-80
2023/03/21 09:33:28;;;;;;;14.95;7.50;;;;;;;;;;5121051;27;20131;-81
2023/03/21 09:35:56;;;;;;;16.02;8.45;;;;;;;;;;5121092;27;20048;-81
2023/03/21 09:38:29;;;;;;;17.08;7.82;;;;;;;;;;5119983;27;20060;-81
2023/03/21 09:41:18;;;;;;;13.82;7.47;;;;;;;;;;5119981;27;20139;-82
2023/03/21 09:44:03;;;;;;;14.95;6.45;;;;;;;;;;5106038;28;20047;-82
2023/03/21 09:46:29;;;;;;;19.65;7.82;;;;;;;;;;5108693;27;20504;-82
2023/03/21 09:48:58;;;;;;;16.85;8.20;;;;;;;;;;5109352;28;20056;-81
2023/03/21 09:51:27;;;;;;;21.83;8.50;;;;;;;;;;5115760;28;20139;-82
2023/03/21 09:53:54;;;;;;;18.02;8.20;;;;;;;;;;5116628;27;20569;-81
2023/03/21 09:56:24;;;;;;;19.50;9.90;;;;;;;;;;5109780;27;20048;-83
2023/03/21 09:58:53;;;;;;;11.93;6.90;;;;;;;;;;5116968;27;20075;-81
2023/03/21 10:01:27;;;;;;;15.98;7.55;;;;;;;;;;5120775;27;20044;-81
2023/03/21 10:03:54;;;;;;;14.43;7.85;;;;;;;;;;5120860;27;20048;-74
2023/03/21 10:06:27;;;;;;;16.67;8.38;;;;;;;;;;5120202;27;20569;-74
2023/03/21 10:08:56;;;;;;;18.73;8.02;;;;;;;;;;5120672;27;20087;-76
2023/03/21 10:11:28;;;;;;;16.80;8.60;;;;;;;;;;5120746;28;20392;-74
2023/03/21 10:14:00;;;;;;;13.45;8.30;;;;;;;;;;5118659;27;20098;-73
2023/03/21 10:16:31;;;;;;;14.30;8.02;;;;;;;;;;5120823;27;20115;-74
2023/03/21 10:18:59;;;;;;;12.25;8.13;;;;;;;;;;5120453;27;20117;-74
2023/03/21 10:21:27;;;;;;;15.23;8.68;;;;;;;;;;5120565;27;20080;-76
2023/03/21 10:24:17;;;;;;;15.05;8.43;;;;;;;;;;5119939;27;20048;-76
2023/03/21 10:26:44;;;;;;;11.57;8.02;;;;;;;;;;5123312;27;20044;-76
2023/03/21 10:29:15;;;;;;;16.60;8.32;;;;;;;;;;5121840;27;20165;-77
2023/03/21 10:31:42;;;;;;;12.20;8.05;;;;;;;;;;5114096;27;20572;-76
2023/03/21 10:34:17;;;;;;;14.98;8.73;;;;;;;;;;5114575;28;20048;-76
2023/03/21 10:36:43;;;;;;;14.57;7.80;;;;;;;;;;5115004;28;20156;-77
2023/03/21 10:39:17;;;;;;;13.82;7.60;;;;;;;;;;5112208;28;20059;-76
2023/03/21 10:41:43;;;;;;;15.43;7.45;;;;;;;;;;5114042;28;20131;-75
2023/03/21 10:44:13;;;;;;;15.68;7.22;;;;;;;;;;5114464;28;20094;-76
2023/03/21 10:46:50;;;;;;;11.85;7.47;;;;;;;;;;5113566;28;20424;-76
2023/03/21 10:49:17;;;;;;;13.43;8.27;;;;;;;;;;5117337;28;20131;-75
2023/03/21 10:51:45;;;;;;;17.55;7.30;;;;;;;;;;5118932;27;20139;-76
2023/03/21 10:54:14;;;;;;;14.02;7.38;;;;;;;;;;5111958;28;20052;-76
2023/03/21 10:56:53;;;;;;;15.25;6.95;;;;;;;;;;5110204;27;20435;-77
2023/03/21 10:59:21;;;;;;;13.15;7.43;;;;;;;;;;5110520;28;20048;-76
2023/03/21 11:01:50;;;;;;;15.98;7.03;;;;;;;;;;5113389;27;20516;-76
2023/03/21 11:04:18;;;;;;;12.82;6.57;;;;;;;;;;5107836;28;20055;-77
2023/03/21 11:06:50;;;;;;;13.10;6.80;;;;;;;;;;5119196;28;20139;-75
2023/03/21 11:09:19;;;;;;;12.30;7.05;;;;;;;;;;5114656;27;20550;-78
2023/03/21 11:11:51;;;;;;;12.35;6.43;;;;;;;;;;5111371;28;20539;-77
2023/03/21 11:14:25;;;;;;;12.35;6.05;;;;;;;;;;5112666;28;20044;-78
2023/03/21 11:16:52;;;;;;;8.50;6.22;;;;;;;;;;5108015;28;20086;-77
2023/03/21 11:19:26;;;;;;;11.90;6.53;;;;;;;;;;5122512;28;20427;-77
2023/03/21 11:21:55;;;;;;;9.50;6.40;;;;;;;;;;5109940;27;20048;-77
2023/03/21 11:24:21;;;;;;;13.55;6.13;;;;;;;;;;5116743;28;20052;-77
2023/03/21 11:26:49;;;;;;;13.27;6.28;;;;;;;;;;5123727;28;20117;-77
2023/03/21 11:29:20;;;;;;;12.18;5.97;;;;;;;;;;5131190;27;20048;-76
2023/03/21 11:31:49;;;;;;;8.63;6.00;;;;;;;;;;5124850;27;20052;-77
2023/03/21 11:34:27;;;;;;;9.23;5.28;;;;;;;;;;5112710;27;20536;-77
2023/03/21 11:36:57;;;;;;;18.15;5.97;;;;;;;;;;5116659;28;20040;-77
2023/03/21 11:39:38;;;;;;;14.20;6.75;;;;;;;;;;5109808;27;20057;-77
2023/03/21 11:42:05;;;;;;;9.15;5.88;;;;;;;;;;5108384;28;21002;-77
2023/03/21 11:44:33;;;;;;;10.95;5.63;;;;;;;;;;5107573;27;20078;-75
2023/03/21 11:47:00;;;;;;;11.68;6.05;;;;;;;;;;5118063;28;20534;-76
2023/03/21 11:49:27;;;;;;;8.27;5.50;;;;;;;;;;5115100;27;20044;-75
2023/03/21 11:51:53;;;;;;;11.95;5.65;;;;;;;;;;5114604;27;20047;-74
2023/03/21 11:54:38;;;;;;;11.88;6.82;;;;;;;;;;5110655;27;20052;-75
2023/03/21 11:57:26;;;;;;;11.98;5.82;;;;;;;;;;5114442;28;20052;-78
2023/03/21 12:00:13;;;;;;;15.32;7.00;;;;;;;;;;5117390;27;20534;-78
2023/03/21 12:02:57;;;;;;;13.27;6.55;;;;;;;;;;5117067;27;20511;-77
2023/03/21 12:05:33;;;;;;;9.73;6.07;;;;;;;;;;5108089;28;20520;-75
2023/03/21 12:08:05;;;;;;;9.10;5.93;;;;;;;;;;5115180;28;20079;-77
2023/03/21 12:10:39;;;;;;;15.43;5.80;;;;;;;;;;5113441;28;20462;-77
2023/03/21 12:13:08;;;;;;;14.07;6.03;;;;;;;;;;5109473;27;20055;-78
2023/03/21 12:15:37;;;;;;;7.50;5.78;;;;;;;;;;5115824;28;20053;-77
2023/03/21 12:18:17;;;;;;;12.25;6.30;;;;;;;;;;5120906;28;20056;-77
2023/03/21 12:21:03;;;;;;;13.85;5.90;;;;;;;;;;5118252;28;20052;-78
2023/03/21 12:23:45;;;;;;;11.05;5.72;;;;;;;;;;5102027;27;20565;-75
2023/03/21 12:26:17;;;;;;;11.60;6.10;;;;;;;;;;5112884;28;20122;-75
2023/03/21 12:28:50;;;;;;;12.30;5.72;;;;;;;;;;5110637;28;20049;-74
2023/03/21 12:31:16;;;;;;;10.07;5.78;;;;;;;;;;5112619;28;20044;-74
2023/03/21 12:33:45;;;;;;;14.50;5.93;;;;;;;;;;5103888;28;20513;-74
2023/03/21 12:36:28;;;;;;;12.95;5.85;;;;;;;;;;5115474;28;20138;-75
2023/03/21 12:39:07;;;;;;;11.57;6.07;;;;;;;;;;5112813;28;20148;-74
2023/03/21 12:41:41;;;;;;;13.93;5.95;;;;;;;;;;5101550;27;20570;-74
2023/03/21 12:44:10;;;;;;;15.13;6.72;;;;;;;;;;5104386;28;20106;-75
2023/03/21 12:46:47;;;;;;;13.52;6.20;;;;;;;;;;5105822;28;20845;-75
2023/03/21 12:49:23;;;;;;;18.33;7.30;;;;;;;;;;5117414;27;20113;-74
2023/03/21 12:51:53;;;;;;;10.85;6.93;;;;;;;;;;5115326;27;20897;-74
2023/03/21 12:54:27;;;;;;;17.00;7.53;;;;;;;;;;5114780;28;20044;-74
2023/03/21 12:57:02;;;;;;;16.98;6.47;;;;;;;;;;5101362;28;20098;-76
2023/03/21 12:59:32;;;;;;;9.40;6.80;;;;;;;;;;5114417;28;20087;-76
2023/03/21 13:02:03;;;;;;;19.60;7.03;;;;;;;;;;5114833;28;20051;-76
2023/03/21 13:04:37;;;;;;;16.93;7.47;;;;;;;;;;5106627;27;20082;-77
2023/03/21 13:07:05;;;;;;;10.50;6.75;;;;;;;;;;5130849;27;20052;-76
2023/03/21 13:09:32;;;;;;;16.15;7.55;;;;;;;;;;5109253;28;20048;-77
2023/03/21 13:12:10;;;;;;;11.48;7.20;;;;;;;;;;5110128;27;20052;-76
2023/03/21 13:14:51;;;;;;;16.35;7.22;;;;;;;;;;5117795;27;20524;-77
2023/03/21 13:17:24;;;;;;;16.08;7.32;;;;;;;;;;5107538;27;20050;-76
2023/03/21 13:20:05;;;;;;;9.95;7.07;;;;;;;;;;5108658;28;20075;-73
2023/03/21 13:22:31;;;;;;;7.68;6.28;;;;;;;;;;5116413;27;20044;-74
2023/03/21 13:25:04;;;;;;;17.58;9.60;;;;;;;;;;5108397;27;20089;-74
2023/03/21 13:27:32;;;;;;;7.03;5.18;;;;;;;;;;5109394;27;20056;-74
2023/03/21 13:30:25;;;;;;;11.43;6.28;;;;;;;;;;5113458;28;20044;-74
2023/03/21 13:32:51;;;;;;;;;;;;;;;;;;5108600;28;20139;-74
2023/03/21 13:35:33;;;;;;;6.55;5.07;;;;;;;;;;5106394;27;34363;-74
2023/03/21 13:38:04;;;;;;;7.03;4.60;;;;;;;;;;5101022;28;20083;-74
2023/03/21 13:40:37;;;;;;;8.23;5.33;;;;;;;;;;5120212;28;20048;-74
2023/03/21 13:43:03;;;;;;;;;;;;;;;;;;5104707;28;20285;-74
2023/03/21 13:45:32;;;;;;;14.82;6.78;;;;;;;;;;5113075;27;19928;-74
2023/03/21 13:48:12;;;;;;;11.25;6.20;;;;;;;;;;5106413;28;20051;-74
2023/03/21 13:50:53;;;;;;;9.18;5.80;;;;;;;;;;5112051;28;20048;-74
2023/03/21 13:53:21;;;;;;;6.03;5.50;;;;;;;;;;5109403;28;20118;-75
2023/03/21 13:55:57;;;;;;;9.55;5.85;;;;;;;;;;5114540;27;20414;-74
2023/03/21 13:58:31;;;;;;;9.85;5.82;;;;;;;;;;5116299;27;20515;-74
2023/03/21 14:01:16;;;;;;;8.57;5.35;;;;;;;;;;5115567;28;20076;-74
2023/03/21 14:03:44;;;;;;;9.38;5.88;;;;;;;;;;5108138;28;20136;-74
2023/03/21 14:06:10;;;;;;;15.15;6.43;;;;;;;;;;5121210;27;20056;-74
2023/03/21 14:08:39;;;;;;;10.10;5.35;;;;;;;;;;5111067;27;20437;-74
2023/03/21 14:11:08;;;;;;;12.80;5.78;;;;;;;;;;5119887;27;20055;-75
2023/03/21 14:13:35;;;;;;;8.55;5.32;;;;;;;;;;5118844;27;20048;-74
2023/03/21 14:16:16;;;;;;;11.48;5.63;;;;;;;;;;5119637;28;20048;-75
2023/03/21 14:18:44;;;;;;;6.15;5.53;;;;;;;;;;5111186;27;20044;-74
2023/03/21 14:21:24;;;;;;;12.45;6.00;;;;;;;;;;5116341;27;20429;-74
2023/03/21 14:24:04;;;;;;;6.70;4.80;;;;;;;;;;5119024;27;20098;-74
2023/03/21 14:26:35;;;;;;;8.40;6.15;;;;;;;;;;5122081;28;22242;-75
2023/03/21 14:29:03;;;;;;;7.70;6.18;;;;;;;;;;5108359;27;20106;-74
2023/03/21 14:31:32;;;;;;;13.82;6.65;;;;;;;;;;5112112;28;20420;-74
2023/03/21 14:34:00;;;;;;;10.23;6.75;;;;;;;;;;5103952;28;20080;-74
2023/03/21 14:36:29;;;;;;;12.95;6.45;;;;;;;;;;5116588;28;20094;-74
2023/03/21 14:39:01;;;;;;;12.13;6.90;;;;;;;;;;5112863;28;20088;-74
2023/03/21 14:41:27;;;;;;;;;;;;;;;;;;5106455;28;20044;-74
2023/03/21 14:44:03;;;;;;;8.40;7.20;;;;;;;;;;5112179;27;36451;-74
2023/03/21 14:46:29;;;;;;;15.18;7.00;;;;;;;;;;5120564;28;20059;-74
2023/03/21 14:49:08;;;;;;;11.00;7.63;;;;;;;;;;5114685;28;20068;-74
2023/03/21 14:51:34;;;;;;;11.85;7.28;;;;;;;;;;5120838;28;20204;-74